Triumph — WDC9555 — position and weather

sailwx.info

Track history (hours):
 
Tides and Currents Weather Stations Pressure Air Temp Water Temp Dewpoint Dewpoint Depression Visibility Wind Speed Wind Dir Waves Ship Positions

Triumph

Owner: WESTERN TOWBOAT CO, SEATTLE, WA. More information available from US FCC via Universal Licensing System and Coast Guard Vessel Documentation Center.

Last reported at 2015-Jul-01 17:15 UTC. Time now 2015-Jul-03 12:23 UTC.
Position N 47°39' W 122°22'.

Length 24 m; draft 3 m.

Type: Tow > 200 m length. MMSI: 367103880.

Date/timePositionNaut miles runAvg speedWind from/ knotsBaromVisibWave heightAir tempDewpointWater temp
2015-Jul-01 17:15N 47°39' W 122°22'2 2.6
2015-Jul-01 16:33N 47°40' W 122°24'5 4.9
2015-Jul-01 15:33N 47°35' W 122°22'0 0.0
2015-Jul-01 14:33N 47°35' W 122°22'2 2.3
2015-Jul-01 13:33N 47°37' W 122°25'7 6.6
2015-Jul-01 12:33N 47°43' W 122°27'7 7.3
2015-Jul-01 11:33N 47°51' W 122°28'7 7.3
2015-Jul-01 10:33N 47°57' W 122°34'20 8.6
2015-Jul-01 08:14N 48°14' W 122°49'6 8.1
2015-Jul-01 07:32N 48°20' W 122°46'7 7.4
2015-Jul-01 06:33N 48°27' W 122°45'8 8.4
2015-Jul-01 05:33N 48°35' W 122°45'8 8.1
2015-Jul-01 04:33N 48°43' W 122°46'8 7.5
2015-Jul-01 03:33N 48°48' W 122°55'7 7.0
2015-Jul-01 02:33N 48°52' W 123°04'7 7.3
2015-Jul-01 01:33N 48°57' W 123°12'7 7.2
2015-Jul-01 00:33N 49°02' W 123°20'7 7.4
2015-Jun-30 23:33N 49°07' W 123°28'8 7.7
2015-Jun-30 22:33N 49°12' W 123°36'8 8.2
2015-Jun-30 21:33N 49°18' W 123°45'8 8.0
2015-Jun-30 20:33N 49°23' W 123°55'8 7.8
2015-Jun-30 19:33N 49°27' W 124°05'8 8.2
2015-Jun-30 18:33N 49°32' W 124°16'8 8.1
2015-Jun-30 17:33N 49°36' W 124°27'8 8.4
2015-Jun-30 16:33N 49°41' W 124°37'9 8.4
2015-Jun-30 15:33N 49°46' W 124°47'8 8.3
2015-Jun-30 14:32N 49°52' W 124°57'8 7.8
2015-Jun-30 13:33N 49°56' W 125°06'13 5.9
2015-Jun-30 11:26N 50°06' W 125°18'6 6.8
2015-Jun-30 10:33N 50°12' W 125°22'7 6.6
2015-Jun-30 09:33N 50°18' W 125°25'10 4.5
2015-Jun-30 07:22N 50°22' W 125°39'28 4.6
2015-Jun-30 01:20N 50°30' W 126°21'5 5.1
2015-Jun-30 00:26N 50°30' W 126°28'28 5.3
2015-Jun-29 19:09N 50°45' W 127°06'4 6.3
2015-Jun-29 18:33N 50°47' W 127°11'8 8.1
2015-Jun-29 17:33N 50°52' W 127°20'9 8.5
2015-Jun-29 16:33N 50°58' W 127°31'7 7.3
2015-Jun-29 15:33N 51°03' W 127°39'8 7.7
2015-Jun-29 14:33N 51°08' W 127°49'  
2015-Jun-26 07:12N 58°15' W 135°37'4 6.6
2015-Jun-26 06:32N 58°18' W 135°44'6 6.0
2015-Jun-26 05:33N 58°17' W 135°55'7 6.9
2015-Jun-26 04:33N 58°15' W 136°08'  
Track history (hours):
 
Tides and Currents Weather Stations Pressure Air Temp Water Temp Dewpoint Dewpoint Depression Visibility Wind Speed Wind Dir Waves Ship Positions

Triumph

Owner: WESTERN TOWBOAT CO, SEATTLE, WA. More information available from US FCC via Universal Licensing System and Coast Guard Vessel Documentation Center.

Last reported at 2015-Jul-01 17:15 UTC. Time now 2015-Jul-03 12:23 UTC.
Position N 47°39' W 122°22'.

Length 24 m; draft 3 m.

Type: Tow > 200 m length. MMSI: 367103880.

Date/timePositionNaut miles runAvg speedWind from/ knotsBaromVisibWave heightAir tempDewpointWater temp
2015-Jul-01 17:15N 47°39' W 122°22'2 2.6
2015-Jul-01 16:33N 47°40' W 122°24'5 4.9
2015-Jul-01 15:33N 47°35' W 122°22'0 0.0
2015-Jul-01 14:33N 47°35' W 122°22'2 2.3
2015-Jul-01 13:33N 47°37' W 122°25'7 6.6
2015-Jul-01 12:33N 47°43' W 122°27'7 7.3
2015-Jul-01 11:33N 47°51' W 122°28'7 7.3
2015-Jul-01 10:33N 47°57' W 122°34'20 8.6
2015-Jul-01 08:14N 48°14' W 122°49'6 8.1
2015-Jul-01 07:32N 48°20' W 122°46'7 7.4
2015-Jul-01 06:33N 48°27' W 122°45'8 8.4
2015-Jul-01 05:33N 48°35' W 122°45'8 8.1
2015-Jul-01 04:33N 48°43' W 122°46'8 7.5
2015-Jul-01 03:33N 48°48' W 122°55'7 7.0
2015-Jul-01 02:33N 48°52' W 123°04'7 7.3
2015-Jul-01 01:33N 48°57' W 123°12'7 7.2
2015-Jul-01 00:33N 49°02' W 123°20'7 7.4
2015-Jun-30 23:33N 49°07' W 123°28'8 7.7
2015-Jun-30 22:33N 49°12' W 123°36'8 8.2
2015-Jun-30 21:33N 49°18' W 123°45'8 8.0
2015-Jun-30 20:33N 49°23' W 123°55'8 7.8
2015-Jun-30 19:33N 49°27' W 124°05'8 8.2
2015-Jun-30 18:33N 49°32' W 124°16'8 8.1
2015-Jun-30 17:33N 49°36' W 124°27'8 8.4
2015-Jun-30 16:33N 49°41' W 124°37'9 8.4
2015-Jun-30 15:33N 49°46' W 124°47'8 8.3
2015-Jun-30 14:32N 49°52' W 124°57'8 7.8
2015-Jun-30 13:33N 49°56' W 125°06'13 5.9
2015-Jun-30 11:26N 50°06' W 125°18'6 6.8
2015-Jun-30 10:33N 50°12' W 125°22'7 6.6
2015-Jun-30 09:33N 50°18' W 125°25'10 4.5
2015-Jun-30 07:22N 50°22' W 125°39'28 4.6
2015-Jun-30 01:20N 50°30' W 126°21'5 5.1
2015-Jun-30 00:26N 50°30' W 126°28'28 5.3
2015-Jun-29 19:09N 50°45' W 127°06'4 6.3
2015-Jun-29 18:33N 50°47' W 127°11'8 8.1
2015-Jun-29 17:33N 50°52' W 127°20'9 8.5
2015-Jun-29 16:33N 50°58' W 127°31'7 7.3
2015-Jun-29 15:33N 51°03' W 127°39'8 7.7
2015-Jun-29 14:33N 51°08' W 127°49'  
2015-Jun-26 07:12N 58°15' W 135°37'4 6.6
2015-Jun-26 06:32N 58°18' W 135°44'6 6.0
2015-Jun-26 05:33N 58°17' W 135°55'7 6.9
2015-Jun-26 04:33N 58°15' W 136°08'  

Dump ship's entire track history